Latest Weather Observations for Browse Island

IDW60801

Issued at 10:05 am WST Thursday 27 November 2014 (issued every 30 minutes, with the page automatically refreshed every 10 minutes)

About weather observations | Map of weather stations | Latest weather observations for WA | Other Formats
Station Details ID: 200784 Name: BROWSE ISLAND Lat: -14.11 Lon: 123.55 Height: 3.7 m
Data from the previous 72 hours. | See also: Recent months for locations in Western Australia
Date/Time
WST
Temp
°C
App
Temp
°C
Dew
Point
Rel
Hum
%
Delta-T
°C
Wind Press
QNH
hPa
Press
MSL
hPa
Rain
since 9 am
mm
Dir
 
Spd
km/h
Gust
km/h
Spd
kts
Gust
kts
27/10:00am 30.8 - - - - NNW 9 13 5 7 1009.0 1009.1 -
27/09:30am 29.0 - - - - N 15 11 8 6 1009.0 - -
27/09:00am 30.8 - - - - N 17 - 9 - 1009.0 1008.9 -
27/08:30am 32.0 - - - - N 13 - 7 - 1009.0 - -
27/08:00am 31.1 - - - - N 13 - 7 - 1009.0 1009.0 -
27/07:30am 31.0 - - - - N 13 - 7 - 1008.0 - -
27/07:00am 30.4 - - - - N 13 - 7 - 1008.0 1008.5 -
27/06:30am 30.0 - - - - N 15 - 8 - 1008.0 - -
27/06:00am 29.7 - - - - N 15 17 8 9 1008.0 1008.1 -
27/05:30am 30.0 - - - - N 17 - 9 - 1007.0 - -
27/05:00am 29.4 - - - - N 20 - 11 - 1007.0 1007.3 -
27/04:30am 30.0 - - - - N 20 - 11 - 1007.0 - -
27/04:00am 29.4 - - - - N 19 - 10 - 1006.0 1006.7 -
27/03:30am 29.0 - - - - NNE 20 - 11 - 1006.0 - -
27/03:00am 29.5 - - - - N 20 - 11 - 1006.0 1006.3 -
27/02:30am 30.0 - - - - N 20 - 11 - 1006.0 - -
27/02:00am 29.4 - - - - N 24 - 13 - 1006.0 1006.1 -
27/01:30am 30.0 - - - - N 24 - 13 - 1006.0 - -
27/01:00am 29.4 - - - - NNE 20 - 11 - 1006.0 1006.2 -
27/12:30am 29.0 - - - - NNE 20 - 11 - 1006.0 - -
27/12:00am 29.2 - - - - NNE 22 - 12 - 1006.0 1006.6 -
 
Date/Time
WST
Temp
°C
App
Temp
°C
Dew
Point
Rel
Hum
%
Delta-T
°C
Wind Press
QNH
hPa
Press
MSL
hPa
Rain
since 9 am
mm
Dir
 
Spd
km/h
Gust
km/h
Spd
kts
Gust
kts
26/11:30pm 29.0 - - - - NNE 20 - 11 - 1007.0 - -
26/11:00pm 29.0 - - - - NNE 20 - 11 - 1007.0 1007.3 -
26/10:30pm 29.0 - - - - NNE 19 - 10 - 1007.0 - -
26/10:00pm 29.0 - - - - NE 17 - 9 - 1007.0 1007.7 -
26/09:30pm 29.0 - - - - NE 19 - 10 - 1007.0 - -
26/09:00pm 29.3 - - - - NE 17 - 9 - 1007.0 1007.5 -
26/08:30pm 29.0 - - - - NE 17 - 9 - 1007.0 - -
26/08:00pm 29.0 - - - - ENE 13 - 7 - 1007.0 1007.1 -
26/07:30pm 29.0 - - - - NE 13 - 7 - 1006.0 - -
26/07:00pm 29.0 - - - - NE 13 - 7 - 1006.0 1006.5 -
26/06:30pm 29.0 - - - - N 20 - 11 - 1006.0 - -
26/06:00pm 28.8 - - - - N 24 26 13 14 1005.0 1005.7 -
26/05:30pm 29.0 - - - - N 24 - 13 - 1005.0 - -
26/05:00pm 29.4 - - - - N 20 - 11 - 1005.0 1005.1 -
26/04:30pm 30.0 - - - - N 17 - 9 - 1005.0 - -
26/04:00pm 29.6 - - - - N 17 - 9 - 1005.0 1004.9 -
26/03:30pm 30.0 - - - - NNE 17 - 9 - 1004.0 - -
26/03:00pm 29.9 - - - - N 15 - 8 - 1004.0 1004.6 -
26/02:30pm 29.0 - - - - N 13 - 7 - 1004.0 - -
26/02:00pm 30.2 - - - - NNE 17 - 9 - 1005.0 1005.3 -
26/01:30pm 29.0 - - - - NNE 22 - 12 - 1005.0 - -
26/01:00pm 28.1 - - - - NE 24 - 13 - 1006.0 1006.3 -
26/12:30pm 28.0 - - - - NE 24 - 13 - 1006.0 - -
26/12:00pm 27.8 - - - - NE 20 - 11 - 1007.0 1007.0 -
26/11:30am 27.0 - - - - ENE 30 - 16 - 1007.0 - -
26/11:00am 28.3 - - - - E 35 - 19 - 1008.0 1008.0 -
26/10:54am 29.0 - - - - E 30 - 16 - 1008.0 - -
26/10:30am 30.0 - - - - SE 19 - 10 - 1008.0 - -
26/10:00am 29.5 - - - - SE 6 - 3 - 1008.0 1008.4 -
26/09:30am 30.0 - - - - S 13 - 7 - 1008.0 - -
26/09:00am 30.2 - - - - S 15 - 8 - 1008.0 1008.0 -
26/08:30am 30.0 - - - - SSW 20 - 11 - 1008.0 - -
26/08:00am 30.1 - - - - SSW 20 - 11 - 1007.0 1007.7 -
26/07:30am 30.0 - - - - S 20 - 11 - 1008.0 - -
26/07:00am 29.7 - - - - S 20 - 11 - 1007.0 1007.7 -
26/06:30am 30.0 - - - - S 17 - 9 - 1007.0 - -
26/06:00am 29.8 - - - - SSW 22 - 12 - 1007.0 1007.4 -
26/05:30am 30.0 - - - - S 20 - 11 - 1007.0 - -
26/05:00am 29.7 - - - - SSW 22 - 12 - 1006.0 1006.5 -
26/04:30am 30.0 - - - - SSW 24 - 13 - 1006.0 - -
26/04:00am 29.8 - - - - SSW 22 - 12 - 1006.0 1006.2 -
26/03:30am 30.0 - - - - SW 20 - 11 - 1005.0 - -
26/03:00am 29.9 - - - - WSW 20 - 11 - 1005.0 1005.7 -
26/02:30am 30.0 - - - - SW 20 - 11 - 1005.0 - -
26/02:00am 30.0 - - - - SW 19 - 10 - 1005.0 1005.6 -
26/01:30am 30.0 - - - - WSW 22 - 12 - 1005.0 - -
26/01:00am 30.1 - - - - WSW 15 - 8 - 1006.0 1005.9 -
26/12:30am 30.0 - - - - WSW 15 - 8 - 1005.0 - -
26/12:00am 30.2 - - - - SW 13 - 7 - 1006.0 1006.4 -
 
Date/Time
WST
Temp
°C
App
Temp
°C
Dew
Point
Rel
Hum
%
Delta-T
°C
Wind Press
QNH
hPa
Press
MSL
hPa
Rain
since 9 am
mm
Dir
 
Spd
km/h
Gust
km/h
Spd
kts
Gust
kts
25/11:30pm 30.0 - - - - W 20 - 11 - 1006.0 - -
25/11:00pm 30.3 - - - - W 17 - 9 - 1006.0 1006.6 -
25/10:30pm 30.0 - - - - W 22 - 12 - 1006.0 - -
25/10:00pm 30.4 - - - - W 20 - 11 - 1006.0 1006.7 -
25/09:30pm 30.0 - - - - WNW 20 - 11 - 1007.0 - -
25/09:00pm 30.4 - - - - W 20 - 11 - 1006.0 1006.8 -
25/08:30pm 30.0 - - - - W 17 - 9 - 1007.0 - -
25/08:00pm 30.1 - - - - W 19 - 10 - 1006.0 1006.6 -
25/07:30pm 30.0 - - - - WSW 19 - 10 - 1006.0 - -
25/07:00pm 30.2 - - - - WSW 19 - 10 - 1006.0 1006.3 -
25/06:30pm 30.0 - - - - WSW 19 - 10 - 1006.0 - -
25/06:00pm 30.3 - - - - WSW 13 - 7 - 1006.0 1006.0 -
25/05:30pm 31.0 - - - - WSW 17 - 9 - 1006.0 - -
25/05:00pm 30.7 - - - - WSW 15 - 8 - 1005.0 1005.6 -
25/04:30pm 31.0 - - - - WSW 15 - 8 - 1005.0 - -
25/04:00pm 30.9 - - - - WSW 15 - 8 - 1005.0 1005.8 -
25/03:30pm 31.0 - - - - WSW 15 - 8 - 1006.0 - -
25/03:00pm 31.0 - - - - WSW 13 - 7 - 1006.0 1006.0 -
25/02:30pm 31.0 - - - - WSW 11 - 6 - 1006.0 - -
25/02:00pm 30.8 - - - - SW 13 - 7 - 1006.0 1006.6 -
25/01:30pm 32.0 - - - - SW 11 - 6 - 1007.0 - -
25/01:00pm 31.3 - - - - S 11 - 6 - 1007.0 1007.5 -
25/12:30pm 31.0 - - - - S 9 - 5 - 1008.0 - -
25/12:00pm 30.5 - - - - S 9 - 5 - 1008.0 1008.2 -
25/11:30am 31.0 - - - - SSE 9 - 5 - 1008.0 - -
25/11:00am 30.2 - - - - S 15 - 8 - 1008.0 1008.7 -
25/10:30am 30.0 - - - - S 17 - 9 - 1009.0 - -
25/10:00am 30.4 - - - - SSE 19 - 10 - 1009.0 1009.4 -
25/09:30am 30.0 - - - - SSE 20 - 11 - 1009.0 - -
25/09:00am 30.4 - - - - SSE 20 - 11 - 1010.0 1010.0 -
25/08:30am 30.0 - - - - S 17 - 9 - 1010.0 - -
25/08:00am 30.2 - - - - S 13 - 7 - 1009.0 1009.7 -
25/07:30am 30.0 - - - - SSW 11 - 6 - 1009.0 - -
25/07:00am 30.2 - - - - WSW 9 - 5 - 1009.0 1009.1 -
25/06:30am 30.0 - - - - W 11 - 6 - 1009.0 - -
25/06:00am 30.0 - - - - W 11 - 6 - 1008.0 1008.8 -
25/05:30am 30.0 - - - - W 15 - 8 - 1008.0 - -
25/05:00am 29.8 - - - - WNW 13 - 7 - 1008.0 1008.3 -
25/04:30am 30.0 - - - - WNW 17 - 9 - 1007.0 - -
25/04:00am 29.9 - - - - WNW 19 - 10 - 1007.0 1007.1 -
25/03:30am 30.0 - - - - WNW 15 - 8 - 1007.0 - -
25/03:00am 29.9 - - - - WNW 20 - 11 - 1006.0 1006.8 -
25/02:30am 30.0 - - - - WNW 17 - 9 - 1007.0 - -
25/02:00am 30.0 - - - - WNW 17 - 9 - 1007.0 1007.0 -
25/01:30am 30.0 - - - - WNW 15 - 8 - 1007.0 - -
25/01:00am 30.0 - - - - WNW 13 - 7 - 1007.0 1007.5 -
25/12:30am 30.0 - - - - W 13 - 7 - 1007.0 - -
25/12:00am 30.2 - - - - W 17 - 9 - 1008.0 1008.2 -
 
Date/Time
WST
Temp
°C
App
Temp
°C
Dew
Point
Rel
Hum
%
Delta-T
°C
Wind Press
QNH
hPa
Press
MSL
hPa
Rain
since 9 am
mm
Dir
 
Spd
km/h
Gust
km/h
Spd
kts
Gust
kts
24/11:30pm 30.0 - - - - W 15 - 8 - 1008.0 - -
24/11:00pm 30.2 - - - - W 13 - 7 - 1009.0 1009.1 -
24/10:30pm 30.0 - - - - W 13 - 7 - 1009.0 - -
24/10:00pm 30.5 - - - - W 13 - 7 - 1009.0 1009.3 -
24/09:30pm 30.0 - - - - WSW 11 - 6 - 1009.0 - -
24/09:00pm 30.4 - - - - WSW 11 - 6 - 1009.0 1009.3 -
24/08:30pm 31.0 - - - - SW 9 - 5 - 1009.0 - -
24/08:00pm 30.7 - - - - SW 9 - 5 - 1009.0 1009.1 -
24/07:30pm 31.0 - - - - SW 9 - 5 - 1008.0 - -
24/07:00pm 30.7 - - - - WSW 11 - 6 - 1008.0 1008.5 -
24/06:30pm 31.0 - - - - SW 11 - 6 - 1008.0 - -
24/06:00pm 30.6 - - - - SW 9 - 5 - 1007.0 1007.7 -
24/05:30pm 31.0 - - - - SW 11 - 6 - 1007.0 - -
24/05:00pm 30.9 - - - - SW 9 - 5 - 1007.0 1006.9 -
24/04:30pm 31.0 - - - - SW 9 - 5 - 1006.0 - -
24/04:00pm 30.9 - - - - WSW 9 - 5 - 1007.0 1006.9 -
24/03:30pm 31.0 - - - - WSW 9 - 5 - 1007.0 - -
24/03:00pm 31.0 - - - - SW 9 - 5 - 1007.0 1007.2 -
24/02:30pm 31.0 - - - - SSW 9 - 5 - 1007.0 - -
24/02:00pm 30.5 - - - - SSW 11 - 6 - 1007.0 1007.7 -
24/01:30pm 31.0 - - - - S 11 - 6 - 1008.0 - -
24/01:00pm 30.6 - - - - S 13 - 7 - 1008.0 1008.6 -
24/12:30pm 30.0 - - - - S 15 - 8 - 1009.0 - -
24/12:00pm 30.1 - - - - S 17 - 9 - 1009.0 1009.3 -
24/11:30am 30.0 - - - - S 17 - 9 - 1009.0 - -
24/11:00am 29.8 - - - - S 17 - 9 - 1010.0 1009.9 -
24/10:30am 31.0 - - - - S 15 - 8 - 1010.0 - -

Other Formats:

Comma delimited format used in spreadsheet applications
http://www.bom.gov.au/fwo/IDW60801/IDW60801.94103.axf

JavaScript Object Notation format (JSON) in row-major order
http://www.bom.gov.au/fwo/IDW60801/IDW60801.94103.json